sensor_id;sensor_type;location;lat;lon;timestamp;temperature;humidity
2757;DHT22;1386;50.862;6.494;2023-03-01T08:29:06;1.60;99.90
2757;DHT22;1386;50.862;6.494;2023-03-01T08:31:40;1.70;99.90
2757;DHT22;1386;50.862;6.494;2023-03-01T08:34:10;1.90;99.90
2757;DHT22;1386;50.862;6.494;2023-03-01T08:36:46;2.00;99.90
2757;DHT22;1386;50.862;6.494;2023-03-01T08:39:15;2.10;99.90
2757;DHT22;1386;50.862;6.494;2023-03-01T08:41:46;2.20;99.90
2757;DHT22;1386;50.862;6.494;2023-03-01T08:44:15;2.40;99.90
2757;DHT22;1386;50.862;6.494;2023-03-01T08:46:50;2.50;99.90
2757;DHT22;1386;50.862;6.494;2023-03-01T08:49:19;2.60;99.90
2757;DHT22;1386;50.862;6.494;2023-03-01T08:51:46;2.70;99.90
2757;DHT22;1386;50.862;6.494;2023-03-01T08:54:15;2.70;99.90
2757;DHT22;1386;50.862;6.494;2023-03-01T08:56:46;2.90;99.90
2757;DHT22;1386;50.862;6.494;2023-03-01T08:59:16;3.00;99.90
2757;DHT22;1386;50.862;6.494;2023-03-01T09:01:43;3.30;99.90
2757;DHT22;1386;50.862;6.494;2023-03-01T09:04:10;4.00;99.90
2757;DHT22;1386;50.862;6.494;2023-03-01T09:06:44;3.90;99.90
2757;DHT22;1386;50.862;6.494;2023-03-01T09:09:15;3.80;99.90
2757;DHT22;1386;50.862;6.494;2023-03-01T09:11:48;3.80;99.90
2757;DHT22;1386;50.862;6.494;2023-03-01T09:14:21;3.80;99.90
2757;DHT22;1386;50.862;6.494;2023-03-01T09:16:48;3.80;99.90
2757;DHT22;1386;50.862;6.494;2023-03-01T09:22:42;3.70;99.90
2757;DHT22;1386;50.862;6.494;2023-03-01T09:25:43;3.70;99.90
2757;DHT22;1386;50.862;6.494;2023-03-01T09:28:27;3.70;99.90
2757;DHT22;1386;50.862;6.494;2023-03-01T09:30:59;3.60;99.90
2757;DHT22;1386;50.862;6.494;2023-03-01T09:33:33;3.70;99.90
2757;DHT22;1386;50.862;6.494;2023-03-01T09:36:07;3.80;99.90
2757;DHT22;1386;50.862;6.494;2023-03-01T09:38:34;3.80;99.90
2757;DHT22;1386;50.862;6.494;2023-03-01T09:41:10;3.60;99.90
2757;DHT22;1386;50.862;6.494;2023-03-01T09:44:05;3.70;99.90
2757;DHT22;1386;50.862;6.494;2023-03-01T09:46:46;3.90;99.90
2757;DHT22;1386;50.862;6.494;2023-03-01T09:49:20;4.10;99.90
2757;DHT22;1386;50.862;6.494;2023-03-01T09:51:58;4.10;99.90
2757;DHT22;1386;50.862;6.494;2023-03-01T09:54:26;4.10;99.90
2757;DHT22;1386;50.862;6.494;2023-03-01T09:57:06;4.30;99.90
2757;DHT22;1386;50.862;6.494;2023-03-01T10:02:52;4.50;99.90
2757;DHT22;1386;50.862;6.494;2023-03-01T10:06:13;4.50;99.90
2757;DHT22;1386;50.862;6.494;2023-03-01T10:08:53;4.40;99.90
2757;DHT22;1386;50.862;6.494;2023-03-01T10:11:35;4.50;99.90
2757;DHT22;1386;50.862;6.494;2023-03-01T10:14:23;4.80;99.90
2757;DHT22;1386;50.862;6.494;2023-03-01T10:16:56;5.00;99.90
2757;DHT22;1386;50.862;6.494;2023-03-01T10:19:32;4.80;99.90
2757;DHT22;1386;50.862;6.494;2023-03-01T10:22:03;5.10;99.90
2757;DHT22;1386;50.862;6.494;2023-03-01T10:24:33;4.90;99.90
2757;DHT22;1386;50.862;6.494;2023-03-01T10:27:05;4.90;99.90
2757;DHT22;1386;50.862;6.494;2023-03-01T10:29:49;5.10;99.90
2757;DHT22;1386;50.862;6.494;2023-03-01T10:32:19;5.00;99.90
2757;DHT22;1386;50.862;6.494;2023-03-01T10:34:53;5.20;99.90
2757;DHT22;1386;50.862;6.494;2023-03-01T10:37:21;5.30;99.90
2757;DHT22;1386;50.862;6.494;2023-03-01T10:39:57;5.20;99.90
2757;DHT22;1386;50.862;6.494;2023-03-01T10:42:29;5.20;99.90
2757;DHT22;1386;50.862;6.494;2023-03-01T10:45:26;5.30;99.90
2757;DHT22;1386;50.862;6.494;2023-03-01T10:48:22;5.40;99.90
2757;DHT22;1386;50.862;6.494;2023-03-01T10:51:15;5.60;99.90
2757;DHT22;1386;50.862;6.494;2023-03-01T10:53:53;5.80;99.90
2757;DHT22;1386;50.862;6.494;2023-03-01T10:56:23;5.90;99.90
2757;DHT22;1386;50.862;6.494;2023-03-01T10:58:59;5.90;99.90
2757;DHT22;1386;50.862;6.494;2023-03-01T11:01:34;6.00;99.90
2757;DHT22;1386;50.862;6.494;2023-03-01T11:04:11;6.30;99.90
2757;DHT22;1386;50.862;6.494;2023-03-01T11:06:43;6.50;99.90
2757;DHT22;1386;50.862;6.494;2023-03-01T11:09:15;6.70;99.90
2757;DHT22;1386;50.862;6.494;2023-03-01T11:11:54;6.80;99.90
2757;DHT22;1386;50.862;6.494;2023-03-01T11:14:23;6.80;99.90
2757;DHT22;1386;50.862;6.494;2023-03-01T11:17:04;6.90;99.90
2757;DHT22;1386;50.862;6.494;2023-03-01T11:19:32;7.00;99.90
2757;DHT22;1386;50.862;6.494;2023-03-01T11:22:04;7.10;99.90
2757;DHT22;1386;50.862;6.494;2023-03-01T11:24:39;6.90;99.80
2757;DHT22;1386;50.862;6.494;2023-03-01T11:27:16;7.00;99.90
2757;DHT22;1386;50.862;6.494;2023-03-01T11:29:46;7.30;99.90
2757;DHT22;1386;50.862;6.494;2023-03-01T11:32:26;7.30;98.20
2757;DHT22;1386;50.862;6.494;2023-03-01T11:34:58;7.30;98.00
2757;DHT22;1386;50.862;6.494;2023-03-01T11:37:40;7.30;97.70
2757;DHT22;1386;50.862;6.494;2023-03-01T11:40:15;7.50;99.10
2757;DHT22;1386;50.862;6.494;2023-03-01T11:42:56;7.60;98.80
2757;DHT22;1386;50.862;6.494;2023-03-01T11:45:28;7.60;97.90
2757;DHT22;1386;50.862;6.494;2023-03-01T11:48:25;7.40;95.40
2757;DHT22;1386;50.862;6.494;2023-03-01T11:50:58;7.40;96.30
2757;DHT22;1386;50.862;6.494;2023-03-01T11:53:45;7.40;93.90
2757;DHT22;1386;50.862;6.494;2023-03-01T11:56:22;7.40;94.20
2757;DHT22;1386;50.862;6.494;2023-03-01T11:59:06;7.40;95.40
2757;DHT22;1386;50.862;6.494;2023-03-01T12:01:44;7.60;94.80
2757;DHT22;1386;50.862;6.494;2023-03-01T12:04:34;7.60;95.00
2757;DHT22;1386;50.862;6.494;2023-03-01T12:07:06;7.80;96.20
2757;DHT22;1386;50.862;6.494;2023-03-01T12:09:48;8.00;94.20
2757;DHT22;1386;50.862;6.494;2023-03-01T12:12:31;8.10;94.20
2757;DHT22;1386;50.862;6.494;2023-03-01T12:15:36;8.30;94.20
2757;DHT22;1386;50.862;6.494;2023-03-01T12:18:14;8.40;93.80
2757;DHT22;1386;50.862;6.494;2023-03-01T12:20:52;8.40;92.40
2757;DHT22;1386;50.862;6.494;2023-03-01T12:23:46;8.60;92.80
2757;DHT22;1386;50.862;6.494;2023-03-01T12:26:26;8.50;90.90
2757;DHT22;1386;50.862;6.494;2023-03-01T12:29:22;8.50;91.70
2757;DHT22;1386;50.862;6.494;2023-03-01T12:32:07;8.80;92.00
2757;DHT22;1386;50.862;6.494;2023-03-01T12:37:52;8.80;91.00
2757;DHT22;1386;50.862;6.494;2023-03-01T12:40:33;8.70;89.10
2757;DHT22;1386;50.862;6.494;2023-03-01T12:43:12;8.80;89.30
2757;DHT22;1386;50.862;6.494;2023-03-01T12:45:52;8.80;88.90
2757;DHT22;1386;50.862;6.494;2023-03-01T12:48:38;8.90;89.80
2757;DHT22;1386;50.862;6.494;2023-03-01T12:51:10;9.00;88.00
2757;DHT22;1386;50.862;6.494;2023-03-01T12:53:40;9.00;90.00
2757;DHT22;1386;50.862;6.494;2023-03-01T12:56:10;9.10;89.40
2757;DHT22;1386;50.862;6.494;2023-03-01T12:58:47;8.70;83.10
2757;DHT22;1386;50.862;6.494;2023-03-01T13:01:25;8.70;87.70
2757;DHT22;1386;50.862;6.494;2023-03-01T13:04:24;8.90;89.70
2757;DHT22;1386;50.862;6.494;2023-03-01T13:19:06;9.10;87.50
2757;DHT22;1386;50.862;6.494;2023-03-01T13:21:34;9.00;85.80
2757;DHT22;1386;50.862;6.494;2023-03-01T13:24:01;9.00;85.90
2757;DHT22;1386;50.862;6.494;2023-03-01T13:26:28;9.00;83.80
2757;DHT22;1386;50.862;6.494;2023-03-01T13:28:56;9.00;80.50
2757;DHT22;1386;50.862;6.494;2023-03-01T13:31:58;8.90;82.80
2757;DHT22;1386;50.862;6.494;2023-03-01T13:34:51;8.90;81.20
2757;DHT22;1386;50.862;6.494;2023-03-01T13:37:39;9.00;83.10
2757;DHT22;1386;50.862;6.494;2023-03-01T13:40:58;8.90;80.50
2757;DHT22;1386;50.862;6.494;2023-03-01T13:43:34;8.60;80.90
2757;DHT22;1386;50.862;6.494;2023-03-01T13:46:08;8.60;85.10
2757;DHT22;1386;50.862;6.494;2023-03-01T13:48:49;8.80;86.80
2757;DHT22;1386;50.862;6.494;2023-03-01T13:51:23;8.90;85.50
2757;DHT22;1386;50.862;6.494;2023-03-01T13:54:11;8.90;84.30
2757;DHT22;1386;50.862;6.494;2023-03-01T13:56:40;8.90;82.50
2757;DHT22;1386;50.862;6.494;2023-03-01T13:59:14;8.70;79.00
2757;DHT22;1386;50.862;6.494;2023-03-01T14:01:42;8.70;81.40
2757;DHT22;1386;50.862;6.494;2023-03-01T14:04:27;8.70;83.30
2757;DHT22;1386;50.862;6.494;2023-03-01T14:07:10;8.80;83.50
2757;DHT22;1386;50.862;6.494;2023-03-01T14:09:43;8.80;83.40
2757;DHT22;1386;50.862;6.494;2023-03-01T14:12:22;8.70;82.70
2757;DHT22;1386;50.862;6.494;2023-03-01T14:14:58;8.60;84.20
2757;DHT22;1386;50.862;6.494;2023-03-01T14:17:49;8.70;84.20
2757;DHT22;1386;50.862;6.494;2023-03-01T14:20:28;8.60;84.50
2757;DHT22;1386;50.862;6.494;2023-03-01T14:22:59;8.40;82.00
2757;DHT22;1386;50.862;6.494;2023-03-01T14:25:37;8.50;84.90
2757;DHT22;1386;50.862;6.494;2023-03-01T14:28:14;8.40;83.00
2757;DHT22;1386;50.862;6.494;2023-03-01T14:30:53;8.40;84.20
2757;DHT22;1386;50.862;6.494;2023-03-01T14:33:23;8.30;87.20
2757;DHT22;1386;50.862;6.494;2023-03-01T14:36:02;8.30;86.20
2757;DHT22;1386;50.862;6.494;2023-03-01T14:38:33;8.40;88.10
2757;DHT22;1386;50.862;6.494;2023-03-01T14:41:09;8.40;87.20
2757;DHT22;1386;50.862;6.494;2023-03-01T14:43:37;8.30;84.70
2757;DHT22;1386;50.862;6.494;2023-03-01T14:46:18;8.20;86.50
2757;DHT22;1386;50.862;6.494;2023-03-01T14:48:47;8.20;86.30
2757;DHT22;1386;50.862;6.494;2023-03-01T14:51:14;8.10;85.40
2757;DHT22;1386;50.862;6.494;2023-03-01T14:53:43;8.10;84.20
2757;DHT22;1386;50.862;6.494;2023-03-01T14:56:14;8.00;85.30
2757;DHT22;1386;50.862;6.494;2023-03-01T14:58:43;7.90;84.80
2757;DHT22;1386;50.862;6.494;2023-03-01T15:01:23;7.90;87.50
2757;DHT22;1386;50.862;6.494;2023-03-01T15:03:51;7.90;88.80
2757;DHT22;1386;50.862;6.494;2023-03-01T15:06:19;8.00;88.50
2757;DHT22;1386;50.862;6.494;2023-03-01T15:08:50;8.00;88.20
2757;DHT22;1386;50.862;6.494;2023-03-01T15:11:21;7.90;88.80
2757;DHT22;1386;50.862;6.494;2023-03-01T15:13:53;7.80;89.30
2757;DHT22;1386;50.862;6.494;2023-03-01T15:16:23;7.80;90.20
2757;DHT22;1386;50.862;6.494;2023-03-01T15:19:07;7.80;90.50
2757;DHT22;1386;50.862;6.494;2023-03-01T15:21:36;7.70;90.30
2757;DHT22;1386;50.862;6.494;2023-03-01T15:24:07;7.70;90.30
2757;DHT22;1386;50.862;6.494;2023-03-01T15:26:49;7.70;90.90
2757;DHT22;1386;50.862;6.494;2023-03-01T15:29:27;7.60;90.50
2757;DHT22;1386;50.862;6.494;2023-03-01T15:31:57;7.60;90.80
2757;DHT22;1386;50.862;6.494;2023-03-01T15:34:31;7.60;91.10
2757;DHT22;1386;50.862;6.494;2023-03-01T15:36:59;7.50;90.00
2757;DHT22;1386;50.862;6.494;2023-03-01T15:39:41;7.50;90.50
2757;DHT22;1386;50.862;6.494;2023-03-01T15:42:11;7.40;91.30
2757;DHT22;1386;50.862;6.494;2023-03-01T15:44:41;7.40;92.20
2757;DHT22;1386;50.862;6.494;2023-03-01T15:47:25;7.30;92.30
2757;DHT22;1386;50.862;6.494;2023-03-01T15:50:00;7.30;92.40
2757;DHT22;1386;50.862;6.494;2023-03-01T15:52:32;7.20;92.20
2757;DHT22;1386;50.862;6.494;2023-03-01T15:55:12;7.20;92.50
2757;DHT22;1386;50.862;6.494;2023-03-01T15:57:40;7.20;92.10
2757;DHT22;1386;50.862;6.494;2023-03-01T16:00:11;7.20;92.80
2757;DHT22;1386;50.862;6.494;2023-03-01T16:02:39;7.20;93.30
2757;DHT22;1386;50.862;6.494;2023-03-01T16:05:18;7.10;93.40
2757;DHT22;1386;50.862;6.494;2023-03-01T16:07:48;7.10;93.30
2757;DHT22;1386;50.862;6.494;2023-03-01T16:10:27;7.00;93.90
2757;DHT22;1386;50.862;6.494;2023-03-01T16:12:57;7.00;94.30
2757;DHT22;1386;50.862;6.494;2023-03-01T16:15:32;7.00;93.60
2757;DHT22;1386;50.862;6.494;2023-03-01T16:18:22;6.90;97.90
2757;DHT22;1386;50.862;6.494;2023-03-01T16:20:56;6.80;98.20
2757;DHT22;1386;50.862;6.494;2023-03-01T16:23:49;6.80;99.30
2757;DHT22;1386;50.862;6.494;2023-03-01T16:29:54;6.70;99.90
2757;DHT22;1386;50.862;6.494;2023-03-01T16:32:44;6.60;99.90
2757;DHT22;1386;50.862;6.494;2023-03-01T16:35:13;6.60;99.90
2757;DHT22;1386;50.862;6.494;2023-03-01T16:38:12;6.60;99.90
2757;DHT22;1386;50.862;6.494;2023-03-01T16:40:47;6.50;99.90
2757;DHT22;1386;50.862;6.494;2023-03-01T16:44:32;6.50;99.90
2757;DHT22;1386;50.862;6.494;2023-03-01T17:23:57;6.20;99.90
2757;DHT22;1386;50.862;6.494;2023-03-01T17:26:24;6.10;99.90
2757;DHT22;1386;50.862;6.494;2023-03-01T17:29:00;6.00;99.90
2757;DHT22;1386;50.862;6.494;2023-03-01T17:31:28;5.90;99.90
2757;DHT22;1386;50.862;6.494;2023-03-01T17:34:04;5.80;99.90
2757;DHT22;1386;50.862;6.494;2023-03-01T17:36:30;5.70;99.90
2757;DHT22;1386;50.862;6.494;2023-03-01T17:39:10;5.70;99.90
2757;DHT22;1386;50.862;6.494;2023-03-01T17:41:37;5.60;99.90
2757;DHT22;1386;50.862;6.494;2023-03-01T17:44:04;5.50;99.90
2757;DHT22;1386;50.862;6.494;2023-03-01T17:46:31;5.50;99.90
2757;DHT22;1386;50.862;6.494;2023-03-01T17:48:57;5.40;99.90
2757;DHT22;1386;50.862;6.494;2023-03-01T17:51:24;5.40;99.90
2757;DHT22;1386;50.862;6.494;2023-03-01T17:53:53;5.60;99.90
2757;DHT22;1386;50.862;6.494;2023-03-01T17:56:27;5.50;99.90
2757;DHT22;1386;50.862;6.494;2023-03-01T17:58:56;5.40;99.90
2757;DHT22;1386;50.862;6.494;2023-03-01T18:01:23;5.30;99.90
2757;DHT22;1386;50.862;6.494;2023-03-01T18:03:50;5.30;99.90
2757;DHT22;1386;50.862;6.494;2023-03-01T18:06:19;5.20;99.90
2757;DHT22;1386;50.862;6.494;2023-03-01T18:08:47;5.10;99.90
2757;DHT22;1386;50.862;6.494;2023-03-01T18:11:15;5.00;99.90
2757;DHT22;1386;50.862;6.494;2023-03-01T18:13:45;5.00;99.90
2757;DHT22;1386;50.862;6.494;2023-03-01T18:16:14;5.00;99.90
2757;DHT22;1386;50.862;6.494;2023-03-01T18:18:52;4.90;99.90
2757;DHT22;1386;50.862;6.494;2023-03-01T18:21:19;4.90;99.90
2757;DHT22;1386;50.862;6.494;2023-03-01T18:23:56;4.90;99.90
2757;DHT22;1386;50.862;6.494;2023-03-01T18:26:24;4.80;99.90
2757;DHT22;1386;50.862;6.494;2023-03-01T18:28:57;4.80;99.90
2757;DHT22;1386;50.862;6.494;2023-03-01T18:31:25;4.70;99.90
2757;DHT22;1386;50.862;6.494;2023-03-01T18:33:53;4.70;99.90
2757;DHT22;1386;50.862;6.494;2023-03-01T18:36:23;4.70;99.90
2757;DHT22;1386;50.862;6.494;2023-03-01T18:38:52;4.70;99.90
2757;DHT22;1386;50.862;6.494;2023-03-01T18:41:21;4.60;99.90
2757;DHT22;1386;50.862;6.494;2023-03-01T18:43:48;4.60;99.90
2757;DHT22;1386;50.862;6.494;2023-03-01T18:46:23;4.60;99.90
2757;DHT22;1386;50.862;6.494;2023-03-01T18:48:53;4.60;99.90
2757;DHT22;1386;50.862;6.494;2023-03-01T18:51:23;4.60;99.90
2757;DHT22;1386;50.862;6.494;2023-03-01T18:53:53;4.50;99.90
2757;DHT22;1386;50.862;6.494;2023-03-01T18:56:20;4.40;99.90
2757;DHT22;1386;50.862;6.494;2023-03-01T18:58:47;4.40;99.90
2757;DHT22;1386;50.862;6.494;2023-03-01T19:01:17;4.40;99.90
2757;DHT22;1386;50.862;6.494;2023-03-01T19:03:45;4.40;99.90
2757;DHT22;1386;50.862;6.494;2023-03-01T19:06:13;4.40;99.90
2757;DHT22;1386;50.862;6.494;2023-03-01T19:08:43;4.30;99.90
2757;DHT22;1386;50.862;6.494;2023-03-01T19:11:11;4.30;99.90
2757;DHT22;1386;50.862;6.494;2023-03-01T19:13:39;4.20;99.90
2757;DHT22;1386;50.862;6.494;2023-03-01T19:16:11;4.20;99.90
2757;DHT22;1386;50.862;6.494;2023-03-01T19:18:41;4.20;99.90
2757;DHT22;1386;50.862;6.494;2023-03-01T19:21:09;4.20;99.90
2757;DHT22;1386;50.862;6.494;2023-03-01T19:23:37;4.10;99.90
2757;DHT22;1386;50.862;6.494;2023-03-01T19:26:08;4.10;99.90
2757;DHT22;1386;50.862;6.494;2023-03-01T19:28:36;4.10;99.90
2757;DHT22;1386;50.862;6.494;2023-03-01T19:31:05;4.00;99.90
2757;DHT22;1386;50.862;6.494;2023-03-01T19:33:33;4.00;99.90
2757;DHT22;1386;50.862;6.494;2023-03-01T19:36:02;4.00;99.90
2757;DHT22;1386;50.862;6.494;2023-03-01T19:38:30;4.00;99.90
2757;DHT22;1386;50.862;6.494;2023-03-01T19:40:57;4.00;99.90
2757;DHT22;1386;50.862;6.494;2023-03-01T19:43:24;4.00;99.90
2757;DHT22;1386;50.862;6.494;2023-03-01T19:45:51;3.90;99.90
2757;DHT22;1386;50.862;6.494;2023-03-01T19:48:18;3.90;99.90
2757;DHT22;1386;50.862;6.494;2023-03-01T19:50:45;3.80;99.90
2757;DHT22;1386;50.862;6.494;2023-03-01T19:53:14;3.80;99.90
2757;DHT22;1386;50.862;6.494;2023-03-01T19:55:41;3.80;99.90
2757;DHT22;1386;50.862;6.494;2023-03-01T19:58:09;3.80;99.90
2757;DHT22;1386;50.862;6.494;2023-03-01T20:00:36;3.70;99.90
2757;DHT22;1386;50.862;6.494;2023-03-01T20:03:03;3.70;99.90
2757;DHT22;1386;50.862;6.494;2023-03-01T20:05:32;3.70;99.90
2757;DHT22;1386;50.862;6.494;2023-03-01T20:07:59;3.70;99.90
2757;DHT22;1386;50.862;6.494;2023-03-01T20:10:30;3.60;99.90
2757;DHT22;1386;50.862;6.494;2023-03-01T20:12:58;3.60;99.90
2757;DHT22;1386;50.862;6.494;2023-03-01T20:15:35;3.60;99.90
2757;DHT22;1386;50.862;6.494;2023-03-01T20:18:03;3.50;99.90
2757;DHT22;1386;50.862;6.494;2023-03-01T20:20:35;3.50;99.90
2757;DHT22;1386;50.862;6.494;2023-03-01T20:23:02;3.50;99.90
2757;DHT22;1386;50.862;6.494;2023-03-01T20:25:30;3.40;99.90
2757;DHT22;1386;50.862;6.494;2023-03-01T20:27:57;3.50;99.90
2757;DHT22;1386;50.862;6.494;2023-03-01T20:33:21;3.40;99.90
2757;DHT22;1386;50.862;6.494;2023-03-01T20:35:53;3.30;99.90
2757;DHT22;1386;50.862;6.494;2023-03-01T20:38:20;3.30;99.90
2757;DHT22;1386;50.862;6.494;2023-03-01T20:40:48;3.30;99.90
2757;DHT22;1386;50.862;6.494;2023-03-01T20:43:15;3.30;99.90
2757;DHT22;1386;50.862;6.494;2023-03-01T20:45:42;3.30;99.90
2757;DHT22;1386;50.862;6.494;2023-03-01T20:48:09;3.20;99.90
2757;DHT22;1386;50.862;6.494;2023-03-01T20:50:39;3.20;99.90
2757;DHT22;1386;50.862;6.494;2023-03-01T20:53:06;3.20;99.90
2757;DHT22;1386;50.862;6.494;2023-03-01T20:55:33;3.10;99.90
2757;DHT22;1386;50.862;6.494;2023-03-01T20:58:10;3.20;99.90
2757;DHT22;1386;50.862;6.494;2023-03-01T21:00:37;3.20;99.90
2757;DHT22;1386;50.862;6.494;2023-03-01T21:03:04;3.20;99.90
2757;DHT22;1386;50.862;6.494;2023-03-01T21:05:39;3.20;99.90
2757;DHT22;1386;50.862;6.494;2023-03-01T21:08:06;3.10;99.90
2757;DHT22;1386;50.862;6.494;2023-03-01T21:10:33;3.10;99.90
2757;DHT22;1386;50.862;6.494;2023-03-01T21:13:00;3.10;99.90
2757;DHT22;1386;50.862;6.494;2023-03-01T21:15:28;3.00;99.90
2757;DHT22;1386;50.862;6.494;2023-03-01T21:17:55;3.10;99.90
2757;DHT22;1386;50.862;6.494;2023-03-01T21:20:22;3.00;99.90
2757;DHT22;1386;50.862;6.494;2023-03-01T21:22:49;3.10;99.90
2757;DHT22;1386;50.862;6.494;2023-03-01T21:25:15;3.00;99.90
2757;DHT22;1386;50.862;6.494;2023-03-01T21:27:48;3.00;99.90
2757;DHT22;1386;50.862;6.494;2023-03-01T21:30:15;3.00;99.90
2757;DHT22;1386;50.862;6.494;2023-03-01T21:32:44;3.00;99.90
2757;DHT22;1386;50.862;6.494;2023-03-01T21:35:21;3.00;99.90
2757;DHT22;1386;50.862;6.494;2023-03-01T21:37:48;3.00;99.90
2757;DHT22;1386;50.862;6.494;2023-03-01T21:40:14;3.00;99.90
2757;DHT22;1386;50.862;6.494;2023-03-01T21:42:41;3.00;99.90
2757;DHT22;1386;50.862;6.494;2023-03-01T21:45:13;3.00;99.90
2757;DHT22;1386;50.862;6.494;2023-03-01T21:47:40;3.00;99.90
2757;DHT22;1386;50.862;6.494;2023-03-01T21:50:10;2.90;99.90
2757;DHT22;1386;50.862;6.494;2023-03-01T21:52:39;3.00;99.90
2757;DHT22;1386;50.862;6.494;2023-03-01T21:55:06;2.90;99.90
2757;DHT22;1386;50.862;6.494;2023-03-01T21:57:33;2.90;99.90
2757;DHT22;1386;50.862;6.494;2023-03-01T22:00:09;2.90;99.90
2757;DHT22;1386;50.862;6.494;2023-03-01T22:02:40;2.90;99.90
2757;DHT22;1386;50.862;6.494;2023-03-01T22:05:09;2.90;99.90
2757;DHT22;1386;50.862;6.494;2023-03-01T22:07:36;2.90;99.90
2757;DHT22;1386;50.862;6.494;2023-03-01T22:10:05;2.90;99.90
2757;DHT22;1386;50.862;6.494;2023-03-01T22:12:32;2.80;99.90
2757;DHT22;1386;50.862;6.494;2023-03-01T22:14:59;2.80;99.90
2757;DHT22;1386;50.862;6.494;2023-03-01T22:17:26;2.80;99.90
2757;DHT22;1386;50.862;6.494;2023-03-01T22:19:53;2.80;99.90
2757;DHT22;1386;50.862;6.494;2023-03-01T22:22:21;2.80;99.90
2757;DHT22;1386;50.862;6.494;2023-03-01T22:24:48;2.80;99.90
2757;DHT22;1386;50.862;6.494;2023-03-01T22:27:15;2.70;99.90
2757;DHT22;1386;50.862;6.494;2023-03-01T22:29:44;2.70;99.90
2757;DHT22;1386;50.862;6.494;2023-03-01T22:32:11;2.70;99.90
2757;DHT22;1386;50.862;6.494;2023-03-01T22:34:38;2.70;99.90
2757;DHT22;1386;50.862;6.494;2023-03-01T22:37:05;2.70;99.90
2757;DHT22;1386;50.862;6.494;2023-03-01T22:39:33;2.70;99.90
2757;DHT22;1386;50.862;6.494;2023-03-01T22:42:06;2.70;99.90
2757;DHT22;1386;50.862;6.494;2023-03-01T22:44:34;2.70;99.90
2757;DHT22;1386;50.862;6.494;2023-03-01T22:47:01;2.70;99.90
2757;DHT22;1386;50.862;6.494;2023-03-01T22:49:33;2.70;99.90
2757;DHT22;1386;50.862;6.494;2023-03-01T22:52:00;2.60;99.90
2757;DHT22;1386;50.862;6.494;2023-03-01T22:54:27;2.60;99.90
2757;DHT22;1386;50.862;6.494;2023-03-01T22:56:55;2.60;99.90
2757;DHT22;1386;50.862;6.494;2023-03-01T22:59:28;2.60;99.90
2757;DHT22;1386;50.862;6.494;2023-03-01T23:01:55;2.60;99.90
2757;DHT22;1386;50.862;6.494;2023-03-01T23:04:23;2.60;99.90
2757;DHT22;1386;50.862;6.494;2023-03-01T23:06:50;2.50;99.90
2757;DHT22;1386;50.862;6.494;2023-03-01T23:09:23;2.50;99.90
2757;DHT22;1386;50.862;6.494;2023-03-01T23:11:51;2.50;99.90
2757;DHT22;1386;50.862;6.494;2023-03-01T23:14:20;2.40;99.90
2757;DHT22;1386;50.862;6.494;2023-03-01T23:16:50;2.40;99.90
2757;DHT22;1386;50.862;6.494;2023-03-01T23:19:17;2.40;99.90
2757;DHT22;1386;50.862;6.494;2023-03-01T23:21:44;2.30;99.90
2757;DHT22;1386;50.862;6.494;2023-03-01T23:24:15;2.30;99.90
2757;DHT22;1386;50.862;6.494;2023-03-01T23:26:42;2.30;99.90
2757;DHT22;1386;50.862;6.494;2023-03-01T23:29:11;2.30;99.90
2757;DHT22;1386;50.862;6.494;2023-03-01T23:31:39;2.20;99.90
2757;DHT22;1386;50.862;6.494;2023-03-01T23:34:06;2.20;99.90
2757;DHT22;1386;50.862;6.494;2023-03-01T23:36:33;2.10;99.90
2757;DHT22;1386;50.862;6.494;2023-03-01T23:39:04;2.10;99.90
2757;DHT22;1386;50.862;6.494;2023-03-01T23:41:33;2.10;99.90
2757;DHT22;1386;50.862;6.494;2023-03-01T23:44:01;2.10;99.90
2757;DHT22;1386;50.862;6.494;2023-03-01T23:46:30;2.10;99.90
2757;DHT22;1386;50.862;6.494;2023-03-01T23:48:59;2.10;99.90
2757;DHT22;1386;50.862;6.494;2023-03-01T23:51:26;2.10;99.90
2757;DHT22;1386;50.862;6.494;2023-03-01T23:53:55;2.10;99.90
2757;DHT22;1386;50.862;6.494;2023-03-01T23:56:27;2.10;99.90
2757;DHT22;1386;50.862;6.494;2023-03-01T23:58:55;2.10;99.90
